createdAt,value
2023-02-19T00:02:23.564Z,64.72
2023-02-19T00:05:48.123Z,66.85
2023-02-19T00:09:16.672Z,65.72
2023-02-19T00:12:41.245Z,66.10
2023-02-19T00:16:24.870Z,65.53
2023-02-19T00:19:57.832Z,65.03
2023-02-19T00:23:21.713Z,65.55
2023-02-19T00:26:46.123Z,63.55
2023-02-19T00:30:09.083Z,65.68
2023-02-19T00:33:31.166Z,69.28
2023-02-19T00:36:54.429Z,67.90
2023-02-19T00:51:03.076Z,60.17
2023-02-19T00:54:28.891Z,64.28
2023-02-19T00:58:43.433Z,63.72
2023-02-19T01:01:49.955Z,61.25
2023-02-19T01:05:14.699Z,67.47
2023-02-19T01:08:37.614Z,65.50
2023-02-19T01:12:01.922Z,64.43
2023-02-19T01:15:27.780Z,64.55
2023-02-19T01:18:53.339Z,65.40
2023-02-19T01:22:26.673Z,66.35
2023-02-19T01:25:50.751Z,63.38
2023-02-19T01:29:22.351Z,63.97
2023-02-19T01:32:49.952Z,61.78
2023-02-19T01:36:17.959Z,67.75
2023-02-19T01:39:40.984Z,62.30
2023-02-19T01:43:03.883Z,64.28
2023-02-19T01:46:31.027Z,66.85
2023-02-19T01:50:07.380Z,64.55
2023-02-19T01:57:25.876Z,64.50
2023-02-19T02:00:52.604Z,66.80
2023-02-19T02:04:31.646Z,63.08
2023-02-19T02:08:17.909Z,66.85
2023-02-19T02:12:08.357Z,59.60
2023-02-19T02:15:52.086Z,60.33
2023-02-19T02:19:28.259Z,64.80
2023-02-19T02:23:28.790Z,64.38
2023-02-19T02:27:21.552Z,59.25
2023-02-19T02:30:53.717Z,65.43
2023-02-19T02:34:25.607Z,66.05
2023-02-19T02:37:48.729Z,65.88
2023-02-19T02:41:12.961Z,63.05
2023-02-19T02:44:36.337Z,60.70
2023-02-19T02:47:58.873Z,60.28
2023-02-19T02:51:32.596Z,61.13
2023-02-19T02:55:23.987Z,59.85
2023-02-19T02:58:49.747Z,60.25
2023-02-19T03:02:23.938Z,59.67
2023-02-19T03:05:57.312Z,59.60
2023-02-19T03:09:34.407Z,62.60
2023-02-19T03:13:20.485Z,60.42
2023-02-19T03:17:08.587Z,54.00
2023-02-19T03:20:41.146Z,58.00
2023-02-19T03:24:34.001Z,58.40
2023-02-19T03:28:00.796Z,55.42
2023-02-19T03:31:25.830Z,59.17
2023-02-19T03:35:04.993Z,54.65
2023-02-19T03:38:42.927Z,58.17
2023-02-19T03:42:28.600Z,56.38
2023-02-19T03:46:08.285Z,74.47
2023-02-19T03:49:40.627Z,72.30
2023-02-19T03:53:06.494Z,70.10
2023-02-19T03:56:46.837Z,70.03
2023-02-19T04:00:19.470Z,67.40
2023-02-19T04:04:08.990Z,67.22
2023-02-19T04:07:38.738Z,70.63
2023-02-19T04:11:03.203Z,70.15
2023-02-19T04:14:39.791Z,68.78
2023-02-19T04:18:07.689Z,69.05
2023-02-19T04:21:32.351Z,69.53
2023-02-19T04:24:58.322Z,71.28
2023-02-19T04:28:22.179Z,69.18
2023-02-19T04:31:49.678Z,69.07
2023-02-19T04:35:18.162Z,71.32
2023-02-19T04:38:58.937Z,69.63
2023-02-19T04:42:28.878Z,71.28
2023-02-19T04:45:53.710Z,71.30
2023-02-19T04:49:29.871Z,67.20
2023-02-19T04:52:54.999Z,71.68
2023-02-19T04:56:18.249Z,70.18
2023-02-19T04:59:40.372Z,68.13
2023-02-19T05:03:04.255Z,70.50
2023-02-19T05:06:29.355Z,68.80
2023-02-19T05:09:59.499Z,75.30
2023-02-19T05:13:36.686Z,68.22
2023-02-19T05:17:13.110Z,70.72
2023-02-19T05:20:37.313Z,71.50
2023-02-19T05:23:59.580Z,71.93
2023-02-19T05:27:21.609Z,72.15
2023-02-19T05:30:47.825Z,70.13
2023-02-19T05:34:10.451Z,75.82
2023-02-19T05:37:32.512Z,71.00
2023-02-19T05:40:55.969Z,68.00
2023-02-19T05:44:18.639Z,67.80
2023-02-19T05:47:41.784Z,67.28
2023-02-19T05:51:13.437Z,65.38
2023-02-19T05:54:42.083Z,68.32
2023-02-19T05:58:05.208Z,70.13
2023-02-19T06:01:30.870Z,66.10
2023-02-19T06:04:54.317Z,65.43
2023-02-19T06:08:22.247Z,68.43
2023-02-19T06:11:46.437Z,70.63
2023-02-19T06:15:17.746Z,67.23
2023-02-19T06:18:42.993Z,63.35
2023-02-19T06:22:05.041Z,63.70
2023-02-19T06:25:27.092Z,66.00
2023-02-19T06:28:51.052Z,62.55
2023-02-19T06:32:13.188Z,62.30
2023-02-19T06:35:36.337Z,62.70
2023-02-19T06:39:05.608Z,65.72
2023-02-19T06:42:27.856Z,73.33
2023-02-19T06:46:08.928Z,69.75
2023-02-19T06:49:32.210Z,71.88
2023-02-19T06:52:57.982Z,73.90
2023-02-19T06:56:28.663Z,69.68
2023-02-19T06:59:55.729Z,70.78
2023-02-19T07:03:20.823Z,71.10
2023-02-19T07:06:43.651Z,73.80
2023-02-19T07:10:13.732Z,75.53
2023-02-19T07:13:39.941Z,75.70
2023-02-19T07:17:06.171Z,75.22
2023-02-19T07:20:34.125Z,79.45
2023-02-19T07:24:08.693Z,79.82
2023-02-19T07:27:37.721Z,80.93
2023-02-19T07:31:05.116Z,75.95
2023-02-19T07:34:29.294Z,76.25
2023-02-19T07:37:55.560Z,72.97
2023-02-19T07:41:18.971Z,73.88
2023-02-19T07:44:44.380Z,72.55
2023-02-19T07:48:07.817Z,69.10
2023-02-19T07:51:31.564Z,60.33
2023-02-19T07:54:56.647Z,60.53
2023-02-19T07:58:19.196Z,59.15
2023-02-19T08:01:59.815Z,60.47
2023-02-19T08:08:43.791Z,56.13
2023-02-19T08:12:24.403Z,58.42
2023-02-19T08:15:47.268Z,62.10
2023-02-19T08:19:09.376Z,60.20
2023-02-19T08:22:31.400Z,64.20
2023-02-19T08:26:13.295Z,63.03
2023-02-19T08:29:38.085Z,60.72
2023-02-19T08:35:04.688Z,60.45
2023-02-19T08:38:27.790Z,68.40
2023-02-19T08:41:53.415Z,68.97
2023-02-19T08:45:16.393Z,63.95
2023-02-19T08:48:42.990Z,65.70
2023-02-19T08:52:06.179Z,67.63
2023-02-19T08:55:29.128Z,63.03
2023-02-19T08:58:51.471Z,63.05
2023-02-19T09:02:13.555Z,66.30
2023-02-19T09:05:35.559Z,67.32
2023-02-19T09:08:57.514Z,66.50
2023-02-19T09:12:19.644Z,67.63
2023-02-19T09:15:41.623Z,69.07
2023-02-19T09:19:04.983Z,71.03
2023-02-19T09:22:26.952Z,66.75
2023-02-19T09:25:48.937Z,66.72
2023-02-19T09:29:11.309Z,64.97
2023-02-19T09:32:33.738Z,62.97
2023-02-19T09:36:00.171Z,71.75
2023-02-19T09:39:22.362Z,70.20
2023-02-19T09:42:44.452Z,68.88
2023-02-19T09:46:25.306Z,67.85
2023-02-19T09:49:59.494Z,64.15
2023-02-19T09:53:26.504Z,67.57
2023-02-19T09:56:48.718Z,68.18
2023-02-19T10:00:22.056Z,65.10
2023-02-19T10:03:48.811Z,64.20
2023-02-19T10:07:16.538Z,65.60
2023-02-19T10:10:39.078Z,61.90
2023-02-19T10:14:12.855Z,61.05
2023-02-19T10:17:35.723Z,59.17
2023-02-19T10:20:57.949Z,60.58
2023-02-19T10:24:30.504Z,57.95
2023-02-19T10:27:52.579Z,59.05
2023-02-19T10:31:23.765Z,59.92
2023-02-19T10:34:45.799Z,58.45
2023-02-19T10:38:08.441Z,57.10
2023-02-19T10:41:31.389Z,55.88
2023-02-19T10:44:58.590Z,54.88
2023-02-19T10:48:34.865Z,55.00
2023-02-19T10:52:02.531Z,53.72
2023-02-19T10:55:37.460Z,55.25
2023-02-19T10:59:18.283Z,53.47
2023-02-19T11:02:40.299Z,51.92
2023-02-19T11:06:04.798Z,57.05
2023-02-19T11:09:43.005Z,53.85
2023-02-19T11:13:07.627Z,52.53
2023-02-19T11:16:41.749Z,52.40
2023-02-19T11:20:10.131Z,53.00
2023-02-19T11:23:36.149Z,54.08
2023-02-19T11:26:59.564Z,52.05
2023-02-19T11:30:35.619Z,55.67
2023-02-19T11:34:00.948Z,56.28
2023-02-19T11:37:23.032Z,52.92
2023-02-19T11:41:14.748Z,53.33
2023-02-19T11:44:46.288Z,50.60
2023-02-19T11:48:17.371Z,48.50
2023-02-19T11:51:51.593Z,52.80
2023-02-19T11:55:35.598Z,49.40
2023-02-19T11:59:04.911Z,51.00
2023-02-19T12:03:05.730Z,48.80
2023-02-19T12:06:32.452Z,49.38
2023-02-19T12:10:20.885Z,51.47
2023-02-19T12:14:01.711Z,52.45
2023-02-19T12:17:29.677Z,57.10
2023-02-19T12:21:21.244Z,47.88
2023-02-19T12:25:23.763Z,47.78
2023-02-19T12:29:01.652Z,47.45
2023-02-19T12:32:44.972Z,56.20
2023-02-19T12:36:57.796Z,60.00
2023-02-19T12:40:36.034Z,58.42
2023-02-19T12:44:16.783Z,59.88
2023-02-19T12:47:42.338Z,58.58
2023-02-19T12:51:34.787Z,57.55
2023-02-19T12:59:59.610Z,58.97
2023-02-19T13:03:33.841Z,57.63
2023-02-19T13:07:40.958Z,56.70
2023-02-19T13:11:30.216Z,53.53
2023-02-19T13:15:04.299Z,54.40
2023-02-19T13:18:56.960Z,54.50
2023-02-19T13:22:44.837Z,54.28
2023-02-19T13:26:16.549Z,53.97
2023-02-19T13:29:59.163Z,57.90
2023-02-19T13:33:40.927Z,43.58
2023-02-19T13:37:16.393Z,43.33
2023-02-19T13:40:42.490Z,55.00
2023-02-19T13:44:27.245Z,53.45
2023-02-19T13:47:58.191Z,55.35
2023-02-19T13:51:22.774Z,57.67
2023-02-19T13:54:45.203Z,56.83
2023-02-19T13:58:35.951Z,58.50
2023-02-19T14:01:57.927Z,58.65
2023-02-19T14:05:58.157Z,53.33
2023-02-19T14:09:41.250Z,55.17
2023-02-19T14:13:03.483Z,54.05
2023-02-19T14:16:49.151Z,54.45
2023-02-19T14:20:17.034Z,52.80
2023-02-19T14:23:39.050Z,55.63
2023-02-19T14:27:01.237Z,53.65
2023-02-19T14:30:24.568Z,53.28
2023-02-19T14:33:50.859Z,52.13
2023-02-19T14:37:23.419Z,50.13
2023-02-19T14:40:47.182Z,47.85
2023-02-19T14:44:25.026Z,49.03
2023-02-19T14:47:48.671Z,48.10
2023-02-19T14:51:36.590Z,46.33
2023-02-19T14:55:39.080Z,48.70
2023-02-19T14:59:11.104Z,50.85
2023-02-19T15:02:33.115Z,49.08
2023-02-19T15:05:59.374Z,50.08
2023-02-19T15:09:21.956Z,49.33
2023-02-19T15:12:54.635Z,45.58
2023-02-19T15:16:19.541Z,46.30
2023-02-19T15:19:43.882Z,47.15
2023-02-19T15:23:07.456Z,47.58
2023-02-19T15:26:35.966Z,46.47
2023-02-19T15:29:57.972Z,47.53
2023-02-19T15:33:20.906Z,47.15
2023-02-19T15:36:43.167Z,48.72
2023-02-19T15:40:07.724Z,46.80
2023-02-19T15:43:39.495Z,49.90
2023-02-19T15:47:25.232Z,44.67
2023-02-19T15:50:57.537Z,47.58
2023-02-19T15:54:50.317Z,49.65
2023-02-19T15:58:21.473Z,50.83
2023-02-19T16:01:43.747Z,47.92
2023-02-19T16:05:24.066Z,50.17
2023-02-19T16:09:06.995Z,49.47
2023-02-19T16:12:29.754Z,51.88
2023-02-19T16:16:16.312Z,49.22
2023-02-19T16:19:44.251Z,48.17
2023-02-19T16:23:13.132Z,51.30
2023-02-19T16:26:42.601Z,51.17
2023-02-19T16:30:09.766Z,52.67
2023-02-19T16:33:38.794Z,53.10
2023-02-19T16:37:03.066Z,52.45
2023-02-19T16:40:24.951Z,53.83
2023-02-19T16:43:47.160Z,53.95
2023-02-19T16:47:27.846Z,53.78
2023-02-19T16:50:50.259Z,54.65
2023-02-19T16:54:12.753Z,54.63
2023-02-19T16:57:34.862Z,54.30
2023-02-19T17:00:57.474Z,54.63
2023-02-19T17:04:56.061Z,53.70
2023-02-19T17:08:43.647Z,54.55
2023-02-19T17:12:10.544Z,55.95
2023-02-19T17:15:32.456Z,54.80
2023-02-19T17:18:55.648Z,56.55
2023-02-19T17:22:17.913Z,58.28
2023-02-19T17:25:40.109Z,59.47
2023-02-19T17:29:05.037Z,61.63
2023-02-19T17:32:30.002Z,60.15
2023-02-19T17:35:51.963Z,57.80
2023-02-19T17:39:15.312Z,58.17
2023-02-19T17:42:37.242Z,57.47
2023-02-19T17:45:59.375Z,58.05
2023-02-19T17:49:21.397Z,53.97
2023-02-19T17:52:43.459Z,55.30
2023-02-19T17:56:05.985Z,53.25
2023-02-19T17:59:27.935Z,53.03
2023-02-19T18:02:51.947Z,53.45
2023-02-19T18:06:16.236Z,51.92
2023-02-19T18:09:43.884Z,52.70
2023-02-19T18:13:12.183Z,51.08
2023-02-19T18:16:36.541Z,53.83
2023-02-19T18:20:36.123Z,50.90
2023-02-19T18:24:08.472Z,51.20
2023-02-19T18:27:38.551Z,52.05
2023-02-19T18:31:09.789Z,50.85
2023-02-19T18:34:37.338Z,50.60
2023-02-19T18:37:59.737Z,52.95
2023-02-19T18:41:21.929Z,51.92
2023-02-19T18:44:47.018Z,52.78
2023-02-19T18:48:09.064Z,51.38
2023-02-19T18:51:31.104Z,49.45
2023-02-19T18:54:55.378Z,50.20
2023-02-19T18:58:21.974Z,49.50
2023-02-19T19:01:44.112Z,45.63
2023-02-19T19:05:06.274Z,49.15
2023-02-19T19:08:30.379Z,49.10
2023-02-19T19:11:52.629Z,48.88
2023-02-19T19:15:18.295Z,49.50
2023-02-19T19:18:52.383Z,51.23
2023-02-19T19:22:16.218Z,45.72
2023-02-19T19:25:48.812Z,47.05
2023-02-19T19:29:11.884Z,46.30
2023-02-19T19:32:34.149Z,46.05
2023-02-19T19:35:56.166Z,46.35
2023-02-19T19:39:18.145Z,44.72
2023-02-19T19:42:40.132Z,46.13
2023-02-19T19:46:04.208Z,45.80
2023-02-19T19:49:26.594Z,49.90
2023-02-19T19:52:48.580Z,45.40
2023-02-19T19:56:10.530Z,47.92
2023-02-19T19:59:32.619Z,47.35
2023-02-19T20:02:54.854Z,48.72
2023-02-19T20:06:29.005Z,49.05
2023-02-19T20:09:51.040Z,48.25
2023-02-19T20:13:17.571Z,49.95
2023-02-19T20:16:39.672Z,50.28
2023-02-19T20:20:02.288Z,50.42
2023-02-19T20:23:25.668Z,51.80
2023-02-19T20:26:49.013Z,49.75
2023-02-19T20:30:14.314Z,49.35
2023-02-19T20:33:36.423Z,49.40
2023-02-19T20:36:58.820Z,52.78
2023-02-19T20:40:20.842Z,51.33
2023-02-19T20:43:42.998Z,52.72
2023-02-19T20:47:05.201Z,52.20
2023-02-19T20:50:27.194Z,53.00
2023-02-19T20:53:49.387Z,48.20
2023-02-19T20:57:12.735Z,50.85
2023-02-19T21:00:34.780Z,52.92
2023-02-19T21:03:56.761Z,50.97
2023-02-19T21:07:18.748Z,52.10
2023-02-19T21:10:40.790Z,53.50
2023-02-19T21:14:03.056Z,53.90
2023-02-19T21:17:25.453Z,53.30
2023-02-19T21:20:47.639Z,55.50
2023-02-19T21:24:12.321Z,55.45
2023-02-19T21:27:34.306Z,54.97
2023-02-19T21:30:56.346Z,52.22
2023-02-19T21:34:20.710Z,51.88
2023-02-19T21:37:43.487Z,54.97
2023-02-19T21:41:05.683Z,52.45
2023-02-19T21:44:27.831Z,53.88
2023-02-19T21:47:52.196Z,55.17
2023-02-19T21:51:14.344Z,52.03
2023-02-19T21:54:36.465Z,57.03
2023-02-19T21:57:58.877Z,55.85
2023-02-19T22:01:26.638Z,56.95
2023-02-19T22:04:53.811Z,58.22
2023-02-19T22:08:17.481Z,55.80
2023-02-19T22:11:39.521Z,55.80
2023-02-19T22:15:01.447Z,53.10
2023-02-19T22:18:24.271Z,55.83
2023-02-19T22:21:46.378Z,53.42
2023-02-19T22:25:08.434Z,57.42
2023-02-19T22:28:30.453Z,55.53
2023-02-19T22:31:52.943Z,51.58
2023-02-19T22:35:15.904Z,53.78
2023-02-19T22:38:37.992Z,55.47
2023-02-19T22:42:00.298Z,55.72
2023-02-19T22:45:22.209Z,56.00
2023-02-19T22:48:47.205Z,56.33
2023-02-19T22:52:10.484Z,57.42
2023-02-19T22:55:32.498Z,58.22
2023-02-19T22:58:57.199Z,58.88
2023-02-19T23:02:19.167Z,59.40
2023-02-19T23:05:41.118Z,59.33
2023-02-19T23:09:09.036Z,62.13
2023-02-19T23:12:32.699Z,60.35
2023-02-19T23:15:54.797Z,62.63
2023-02-19T23:19:17.304Z,61.35
2023-02-19T23:22:40.114Z,62.25
2023-02-19T23:26:02.980Z,63.28
2023-02-19T23:29:27.042Z,63.38
2023-02-19T23:32:49.086Z,60.08
2023-02-19T23:36:12.244Z,65.28
2023-02-19T23:39:34.605Z,61.30
2023-02-19T23:42:56.901Z,61.30
2023-02-19T23:46:18.973Z,63.55
2023-02-19T23:49:41.652Z,65.10
2023-02-19T23:53:04.026Z,62.20
2023-02-19T23:56:27.883Z,62.17
2023-02-19T23:59:49.825Z,59.05
